Time;durP1;ratioP1;P1;durP2;ratioP2;P2;SDS_P1;SDS_P2;PMS_P1;PMS_P2;Temp;Humidity;BMP_temperature;BMP_pressure;BME280_temperature;BME280_humidity;BME280_pressure;Samples;Min_cycle;Max_cycle;Signal;HPM_P1;HPM_P2
2020/12/14 00:00:44;;;;;;;42.35;5.70;;;;;;;12.72;70.98;97293.91;5132476;27;20022;-80
2020/12/14 00:03:09;;;;;;;42.40;6.03;;;;;;;12.60;71.88;97282.34;5109667;27;20035;-80
2020/12/14 00:05:35;;;;;;;31.05;5.00;;;;;;;12.37;72.49;97293.22;5111150;27;20118;-82
2020/12/14 00:08:02;;;;;;;35.95;5.43;;;;;;;12.28;72.81;97272.75;5127611;27;20046;-80
2020/12/14 00:10:28;;;;;;;33.75;5.35;;;;;;;12.23;73.08;97265.13;5125998;27;20206;-80
2020/12/14 00:12:54;;;;;;;36.72;5.32;;;;;;;12.35;72.78;97268.88;5107797;27;20477;-80
2020/12/14 00:15:20;;;;;;;36.85;5.28;;;;;;;12.46;71.73;97277.00;5113092;27;20054;-80
2020/12/14 00:17:47;;;;;;;38.47;5.72;;;;;;;12.52;72.73;97259.19;5111806;27;20035;-81
2020/12/14 00:20:13;;;;;;;42.25;5.43;;;;;;;12.47;72.33;97273.47;5102666;27;20039;-81
2020/12/14 00:22:40;;;;;;;44.45;5.70;;;;;;;12.50;71.58;97273.28;5114746;27;20160;-81
2020/12/14 00:25:05;;;;;;;36.45;6.35;;;;;;;12.36;73.07;97276.66;5104643;27;20027;-79
2020/12/14 00:27:31;;;;;;;41.42;6.25;;;;;;;12.65;71.61;97278.56;5114796;27;20035;-80
2020/12/14 00:30:00;;;;;;;34.30;7.45;;;;;;;12.34;73.24;97264.56;5133445;27;20030;-80
2020/12/14 00:32:27;;;;;;;42.05;7.72;;;;;;;12.79;71.10;97264.72;5127727;27;20031;-81
2020/12/14 00:34:53;;;;;;;46.50;5.50;;;;;;;12.43;72.37;97267.53;5110122;28;20125;-80
2020/12/14 00:37:20;;;;;;;45.78;5.75;;;;;;;12.11;73.67;97253.53;5109735;28;20473;-79
2020/12/14 00:39:46;;;;;;;38.05;5.78;;;;;;;12.62;71.37;97267.38;5106593;28;20623;-80
2020/12/14 00:42:13;;;;;;;42.13;6.20;;;;;;;12.21;72.47;97249.50;5132904;28;20045;-80
2020/12/14 00:44:38;;;;;;;35.53;5.63;;;;;;;12.47;72.15;97242.03;5108043;28;20038;-79
2020/12/14 00:47:06;;;;;;;35.22;5.57;;;;;;;12.62;71.88;97246.44;5113814;27;20031;-79
2020/12/14 00:49:31;;;;;;;48.35;6.47;;;;;;;12.39;72.16;97258.16;5114048;27;20039;-80
2020/12/14 00:52:03;;;;;;;40.75;6.70;;;;;;;12.57;71.61;97267.63;5107550;28;20202;-80
2020/12/14 00:54:29;;;;;;;42.35;6.20;;;;;;;12.36;72.17;97274.03;5130784;27;20055;-80
2020/12/14 00:56:55;;;;;;;45.35;5.50;;;;;;;12.01;73.81;97288.97;5123955;27;20045;-80
2020/12/14 00:59:20;;;;;;;47.55;6.25;;;;;;;12.45;72.26;97267.47;5094236;28;20518;-79
2020/12/14 01:01:53;;;;;;;47.75;6.20;;;;;;;12.43;72.05;97270.16;5090073;28;20406;-80
2020/12/14 01:04:22;;;;;;;38.95;6.80;;;;;;;12.11;73.11;97265.78;5094004;28;20054;-79
2020/12/14 01:06:55;;;;;;;49.35;6.88;;;;;;;12.48;71.75;97260.28;5077904;28;20035;-81
2020/12/14 01:09:21;;;;;;;43.40;6.15;;;;;;;12.22;72.27;97266.91;5077969;28;20502;-79
2020/12/14 01:11:47;;;;;;;40.88;6.25;;;;;;;12.35;72.04;97258.41;5093123;28;20059;-80
2020/12/14 01:14:16;;;;;;;45.75;5.00;;;;;;;12.64;70.66;97269.00;5078312;28;20552;-80
2020/12/14 01:16:42;;;;;;;32.22;5.53;;;;;;;12.40;71.19;97265.09;5086424;28;20108;-80
2020/12/14 01:19:08;;;;;;;38.80;6.00;;;;;;;12.71;69.48;97260.81;5078493;28;20035;-78
2020/12/14 01:21:34;;;;;;;49.92;6.18;;;;;;;12.45;70.27;97257.84;5094542;28;20084;-79
2020/12/14 01:24:00;;;;;;;38.88;6.95;;;;;;;12.46;71.04;97253.44;5076749;28;20036;-80
2020/12/14 01:26:26;;;;;;;38.40;5.53;;;;;;;12.48;69.96;97262.03;5077599;28;20030;-80
2020/12/14 01:28:51;;;;;;;39.88;5.90;;;;;;;12.35;71.03;97263.63;5096181;28;20171;-79
2020/12/14 01:31:17;;;;;;;47.58;6.13;;;;;;;12.59;70.09;97257.94;5123760;27;20100;-79
2020/12/14 01:33:44;;;;;;;37.58;6.28;;;;;;;12.57;69.33;97253.69;5126062;27;20062;-80
2020/12/14 01:36:10;;;;;;;41.28;6.15;;;;;;;12.72;69.32;97242.38;5114621;27;20031;-80
2020/12/14 01:38:36;;;;;;;34.45;6.45;;;;;;;12.84;68.54;97246.97;5112626;28;20038;-80
2020/12/14 01:41:03;;;;;;;34.95;5.75;;;;;;;12.40;69.97;97245.91;5112329;27;20035;-79
2020/12/14 01:43:29;;;;;;;36.72;6.30;;;;;;;12.62;68.82;97242.03;5123909;27;20049;-80
2020/12/14 01:45:55;;;;;;;40.90;5.38;;;;;;;12.84;68.36;97230.38;5119928;27;20035;-81
2020/12/14 01:48:24;;;;;;;46.15;4.72;;;;;;;12.54;69.81;97239.00;5113141;27;20031;-79
2020/12/14 01:50:52;;;;;;;39.45;5.72;;;;;;;12.56;69.32;97254.63;5117834;27;20031;-80
2020/12/14 01:53:20;;;;;;;45.53;6.80;;;;;;;12.66;69.22;97250.59;5130820;27;20055;-79
2020/12/14 01:55:50;;;;;;;34.10;6.25;;;;;;;12.55;69.85;97263.41;5129044;27;20063;-80
2020/12/14 01:58:15;;;;;;;38.42;5.97;;;;;;;12.61;69.53;97256.06;5107901;27;20046;-80
2020/12/14 02:00:43;;;;;;;37.35;4.97;;;;;;;12.55;70.21;97243.31;5131477;27;20035;-80
2020/12/14 02:03:12;;;;;;;39.35;5.75;;;;;;;12.57;69.19;97241.44;5110230;27;20410;-80
2020/12/14 02:05:39;;;;;;;49.03;5.53;;;;;;;12.71;69.48;97242.47;5125374;27;20052;-81
2020/12/14 02:08:05;;;;;;;38.30;5.03;;;;;;;12.52;70.38;97250.47;5112609;27;20027;-81
2020/12/14 02:10:32;;;;;;;45.47;5.60;;;;;;;12.48;70.52;97269.91;5133506;27;20045;-81
2020/12/14 02:12:58;;;;;;;44.83;6.03;;;;;;;12.63;69.71;97263.84;5125139;27;20043;-81
2020/12/14 02:15:25;;;;;;;32.83;5.22;;;;;;;12.74;69.46;97268.50;5112675;27;20081;-79
2020/12/14 02:17:51;;;;;;;46.40;6.20;;;;;;;12.78;69.14;97256.91;5131285;27;20113;-80
2020/12/14 02:20:17;;;;;;;38.10;5.20;;;;;;;12.53;69.69;97254.78;5133091;27;20046;-78
2020/12/14 02:22:43;;;;;;;51.35;6.63;;;;;;;12.65;69.49;97272.47;5112669;27;20081;-79
2020/12/14 02:25:09;;;;;;;44.50;6.45;;;;;;;12.55;69.62;97260.81;5127210;27;20035;-80
2020/12/14 02:27:37;;;;;;;42.90;6.40;;;;;;;12.71;69.41;97266.88;5115863;27;20046;-79
2020/12/14 02:30:06;;;;;;;50.92;7.65;;;;;;;12.29;70.70;97269.19;5130812;27;20035;-77
2020/12/14 02:32:33;;;;;;;44.25;7.00;;;;;;;12.40;70.65;97272.94;5112949;27;20173;-81
2020/12/14 02:34:59;;;;;;;51.85;7.28;;;;;;;12.51;69.73;97272.38;5103341;27;20051;-80
2020/12/14 02:37:33;;;;;;;48.53;7.03;;;;;;;12.85;68.98;97264.38;5108280;27;20074;-78
2020/12/14 02:39:59;;;;;;;40.05;6.03;;;;;;;12.48;70.10;97275.13;5094810;27;20031;-80
2020/12/14 02:42:26;;;;;;;41.67;6.43;;;;;;;12.53;69.65;97265.25;5106017;27;20031;-79
2020/12/14 02:44:53;;;;;;;54.33;6.05;;;;;;;12.72;70.17;97255.47;5108390;27;20474;-78
2020/12/14 02:47:19;;;;;;;49.88;6.35;;;;;;;12.61;69.61;97263.91;5110817;27;20038;-79
2020/12/14 02:49:45;;;;;;;48.05;6.88;;;;;;;12.75;69.77;97265.81;5096824;27;20074;-78
2020/12/14 02:52:15;;;;;;;50.20;6.65;;;;;;;12.91;68.73;97263.16;5096017;27;20127;-79
2020/12/14 02:54:45;;;;;;;43.67;6.20;;;;;;;12.08;72.26;97253.72;5112969;27;20068;-79
2020/12/14 02:57:11;;;;;;;45.97;5.93;;;;;;;12.75;70.11;97263.19;5112400;27;20050;-79
2020/12/14 02:59:37;;;;;;;47.17;6.57;;;;;;;12.87;69.63;97266.88;5107911;27;20075;-79
2020/12/14 03:02:03;;;;;;;42.58;5.72;;;;;;;12.78;69.49;97281.34;5111221;27;20047;-78
2020/12/14 03:04:30;;;;;;;39.28;5.35;;;;;;;12.70;68.98;97283.56;5098939;27;20133;-79
2020/12/14 03:06:57;;;;;;;40.90;5.95;;;;;;;12.69;69.87;97274.00;5111206;27;20540;-80
2020/12/14 03:09:23;;;;;;;51.55;6.70;;;;;;;12.87;68.95;97275.59;5106402;27;20043;-80
2020/12/14 03:11:49;;;;;;;43.95;5.43;;;;;;;12.53;69.52;97267.88;5134196;27;20031;-80
2020/12/14 03:14:15;;;;;;;34.03;5.57;;;;;;;13.11;67.73;97270.81;5134019;27;20477;-80
2020/12/14 03:16:46;;;;;;;58.33;7.03;;;;;;;13.12;67.76;97269.03;5124306;27;20038;-78
2020/12/14 03:19:12;;;;;;;43.75;6.25;;;;;;;12.39;70.05;97263.38;5128435;27;20023;-79
2020/12/14 03:21:38;;;;;;;58.83;6.25;;;;;;;12.70;68.93;97265.22;5107949;27;20031;-80
2020/12/14 03:24:05;;;;;;;39.97;5.72;;;;;;;12.46;69.73;97258.69;5116861;27;20091;-78
2020/12/14 03:26:31;;;;;;;46.38;5.43;;;;;;;12.65;69.08;97268.09;5127354;27;20031;-79
2020/12/14 03:28:58;;;;;;;47.47;6.55;;;;;;;12.31;70.09;97268.19;5114571;27;20035;-78
2020/12/14 03:31:25;;;;;;;41.00;5.40;;;;;;;12.47;69.84;97269.03;5109156;27;20462;-79
2020/12/14 03:33:52;;;;;;;44.40;6.20;;;;;;;12.64;68.55;97261.16;5114666;27;20026;-79
2020/12/14 03:36:20;;;;;;;36.38;5.85;;;;;;;12.69;68.40;97266.13;5130220;27;20027;-80
2020/12/14 03:38:48;;;;;;;41.13;5.72;;;;;;;12.75;69.14;97268.44;5111344;27;20075;-79
2020/12/14 03:41:13;;;;;;;40.67;6.03;;;;;;;13.00;67.14;97260.88;5127387;27;20099;-79
2020/12/14 03:43:43;;;;;;;39.75;5.47;;;;;;;12.46;68.96;97262.16;5109849;27;20458;-80
2020/12/14 03:46:24;;;;;;;32.35;4.88;;;;;;;12.65;67.79;97256.75;5109101;27;20031;-79
2020/12/14 03:48:55;;;;;;;33.17;5.03;;;;;;;12.91;67.05;97248.28;5114039;27;20042;-79
2020/12/14 03:51:23;;;;;;;33.28;4.28;;;;;;;12.83;66.83;97233.94;5109047;27;20041;-79
2020/12/14 03:53:50;;;;;;;33.80;4.38;;;;;;;12.30;68.04;97239.47;5127307;27;20207;-79
2020/12/14 03:56:24;;;;;;;27.33;3.90;;;;;;;12.42;67.56;97246.69;5128735;27;20038;-79
2020/12/14 03:58:51;;;;;;;25.60;3.58;;;;;;;12.43;67.65;97230.88;5110281;27;20134;-79
2020/12/14 04:01:24;;;;;;;24.35;3.92;;;;;;;12.79;66.62;97241.13;5125666;27;20034;-79
2020/12/14 04:03:51;;;;;;;29.27;4.65;;;;;;;12.19;68.45;97227.78;5127054;27;20027;-79
2020/12/14 04:06:24;;;;;;;33.67;6.22;;;;;;;12.45;67.07;97249.13;5111537;27;20034;-78
2020/12/14 04:08:50;;;;;;;21.50;3.78;;;;;;;12.01;68.48;97241.84;5129732;27;20095;-80
2020/12/14 04:11:16;;;;;;;26.77;4.18;;;;;;;12.33;67.42;97249.75;5129535;27;20031;-78
2020/12/14 04:13:42;;;;;;;25.80;3.90;;;;;;;12.49;67.08;97261.97;5107344;28;20042;-78
2020/12/14 04:16:09;;;;;;;24.98;3.95;;;;;;;12.65;66.72;97259.38;5127907;27;20126;-79
2020/12/14 04:18:35;;;;;;;25.27;4.93;;;;;;;12.46;67.52;97264.75;5112999;27;20054;-78
2020/12/14 04:21:02;;;;;;;25.35;4.07;;;;;;;12.32;67.95;97263.81;5108763;28;20488;-79
2020/12/14 04:23:28;;;;;;;35.03;4.38;;;;;;;12.48;68.17;97264.66;5103858;27;20534;-80
2020/12/14 04:25:54;;;;;;;27.65;3.50;;;;;;;12.75;67.08;97265.81;5123774;27;20127;-79
2020/12/14 04:28:20;;;;;;;35.33;5.07;;;;;;;12.50;68.00;97252.34;5128659;27;20060;-80
2020/12/14 04:30:45;;;;;;;25.25;3.15;;;;;;;12.59;67.00;97257.94;5129511;27;20027;-80
2020/12/14 04:33:11;;;;;;;18.42;2.72;;;;;;;12.50;67.27;97250.56;5126325;27;20095;-80
2020/12/14 04:35:37;;;;;;;24.77;3.20;;;;;;;12.68;66.25;97251.34;5129196;27;20393;-79
2020/12/14 04:38:02;;;;;;;17.17;2.92;;;;;;;12.38;66.00;97247.75;5123624;27;20418;-79
2020/12/14 04:40:29;;;;;;;19.23;2.58;;;;;;;12.23;66.92;97249.41;5108595;28;20038;-80
2020/12/14 04:42:58;;;;;;;19.65;2.65;;;;;;;12.42;66.17;97255.34;5093521;27;20027;-80
2020/12/14 04:45:28;;;;;;;14.50;2.88;;;;;;;12.57;65.34;97251.06;5109399;28;20039;-81
2020/12/14 04:47:58;;;;;;;19.55;2.88;;;;;;;12.46;65.74;97261.31;5110192;28;20035;-79
2020/12/14 04:50:25;;;;;;;16.02;2.65;;;;;;;12.20;66.34;97255.66;5108180;28;20027;-81
2020/12/14 04:52:54;;;;;;;24.15;2.80;;;;;;;12.46;65.57;97263.91;5128669;28;20042;-80
2020/12/14 04:55:22;;;;;;;18.70;2.55;;;;;;;12.10;65.71;97257.06;5126038;27;20043;-80
2020/12/14 04:57:49;;;;;;;14.77;2.10;;;;;;;12.64;65.08;97257.69;5128313;28;20405;-80
2020/12/14 05:00:16;;;;;;;18.52;2.35;;;;;;;12.09;66.05;97255.38;5123119;27;20457;-80
2020/12/14 05:02:42;;;;;;;12.85;2.33;;;;;;;12.63;63.66;97253.34;5111348;28;20042;-80
2020/12/14 05:05:14;;;;;;;16.48;2.50;;;;;;;11.92;65.92;97250.19;5123316;27;20028;-80
2020/12/14 05:07:41;;;;;;;9.55;2.00;;;;;;;11.99;65.62;97258.56;5115101;28;20039;-79
2020/12/14 05:10:08;;;;;;;10.43;2.08;;;;;;;12.27;64.57;97250.13;5128038;27;20075;-79
2020/12/14 05:12:40;;;;;;;19.00;2.30;;;;;;;12.17;64.87;97252.38;5108020;28;20035;-80
2020/12/14 05:15:25;;;;;;;17.67;2.65;;;;;;;12.23;65.11;97254.66;5105996;28;20023;-79
2020/12/14 05:18:07;;;;;;;16.75;2.00;;;;;;;11.88;65.97;97260.88;5111247;28;20042;-78
2020/12/14 05:20:33;;;;;;;19.73;2.65;;;;;;;12.22;65.68;97258.22;5125230;27;20120;-79
2020/12/14 05:23:01;;;;;;;20.27;2.20;;;;;;;12.40;65.36;97261.63;5112639;28;20027;-80
2020/12/14 05:25:28;;;;;;;17.33;2.15;;;;;;;12.28;65.90;97264.91;5123873;27;20039;-79
2020/12/14 05:28:20;;;;;;;20.05;3.13;;;;;;;12.11;67.08;97260.53;5113665;28;20035;-79
2020/12/14 05:30:50;;;;;;;11.85;2.22;;;;;;;12.03;67.43;97254.88;5115721;27;20047;-80
2020/12/14 05:33:21;;;;;;;10.75;2.60;;;;;;;12.10;67.63;97259.69;5110170;27;20065;-80
2020/12/14 05:35:47;;;;;;;20.05;2.67;;;;;;;12.02;68.14;97251.41;5110841;27;20329;-80
2020/12/14 05:38:24;;;;;;;23.75;2.80;;;;;;;12.08;69.00;97255.47;5129508;27;20091;-80
2020/12/14 05:41:01;;;;;;;17.90;2.15;;;;;;;12.10;69.03;97257.06;5125599;27;20027;-81
2020/12/14 05:43:31;;;;;;;17.92;3.25;;;;;;;11.90;69.45;97270.34;5127902;27;20038;-80
2020/12/14 05:46:17;;;;;;;19.08;3.92;;;;;;;12.00;69.40;97262.84;5133307;27;20027;-80
2020/12/14 05:48:43;;;;;;;15.63;2.10;;;;;;;11.80;70.16;97261.25;5135257;27;20126;-81
2020/12/14 05:51:10;;;;;;;15.95;2.13;;;;;;;11.69;70.47;97263.56;5142192;27;20039;-80
2020/12/14 05:53:41;;;;;;;13.15;1.88;;;;;;;11.77;70.24;97267.50;5133833;27;20043;-79
2020/12/14 05:56:09;;;;;;;22.02;2.20;;;;;;;11.81;69.99;97268.19;5110669;27;20030;-80
2020/12/14 05:58:39;;;;;;;14.88;2.08;;;;;;;11.84;69.67;97288.97;5129139;27;20047;-79
2020/12/14 06:01:06;;;;;;;11.05;2.60;;;;;;;11.79;70.66;97296.22;5108954;27;20139;-80
2020/12/14 06:03:32;;;;;;;13.88;2.05;;;;;;;11.88;70.59;97289.66;5112692;27;20051;-82
2020/12/14 06:06:06;;;;;;;17.27;2.88;;;;;;;11.69;71.33;97277.50;5118399;27;20118;-84
2020/12/14 06:08:44;;;;;;;16.42;2.33;;;;;;;11.64;71.30;97266.41;5128234;27;20087;-83
2020/12/14 06:11:09;;;;;;;12.25;1.98;;;;;;;11.65;71.75;97277.72;5130048;27;20027;-80
2020/12/14 06:13:48;;;;;;;16.33;2.03;;;;;;;11.76;70.12;97278.03;5127325;27;20035;-79
2020/12/14 06:16:28;;;;;;;19.85;2.58;;;;;;;12.04;69.72;97270.47;5111896;27;20100;-80
2020/12/14 06:18:54;;;;;;;9.70;1.60;;;;;;;12.08;69.29;97279.03;5128648;27;20027;-81
2020/12/14 06:21:27;;;;;;;11.30;2.03;;;;;;;11.85;69.37;97284.56;5133914;27;20038;-82
2020/12/14 06:23:55;;;;;;;16.05;2.15;;;;;;;11.68;69.95;97277.56;5128027;27;20076;-81
2020/12/14 06:26:23;;;;;;;16.13;2.22;;;;;;;12.23;68.16;97286.91;5124696;27;20027;-81
2020/12/14 06:28:51;;;;;;;14.18;2.05;;;;;;;12.21;68.36;97291.38;5130227;27;20038;-80
2020/12/14 06:31:29;;;;;;;18.38;2.85;;;;;;;12.04;68.75;97301.88;5127940;27;20038;-80
2020/12/14 06:33:56;;;;;;;22.90;3.53;;;;;;;11.90;68.47;97293.88;5132597;27;20504;-80
2020/12/14 06:36:24;;;;;;;21.63;3.63;;;;;;;12.33;67.40;97304.75;5135277;27;20027;-81
2020/12/14 06:38:52;;;;;;;18.70;3.55;;;;;;;12.10;67.81;97309.41;5112574;27;20430;-81
2020/12/14 06:41:23;;;;;;;18.52;2.70;;;;;;;12.15;67.60;97298.72;5126960;27;20050;-81
2020/12/14 06:44:04;;;;;;;28.58;3.50;;;;;;;11.78;68.59;97304.97;5128417;27;20027;-80
2020/12/14 06:46:32;;;;;;;27.30;3.28;;;;;;;11.87;69.20;97299.28;5132677;27;20059;-81
2020/12/14 06:49:00;;;;;;;34.72;4.03;;;;;;;12.36;67.01;97302.84;5129252;27;20020;-80
2020/12/14 06:51:45;;;;;;;26.33;3.70;;;;;;;12.04;68.08;97304.50;5127670;27;20080;-79
2020/12/14 06:54:11;;;;;;;24.52;4.53;;;;;;;11.90;68.23;97293.88;5125104;27;20047;-79
2020/12/14 06:56:40;;;;;;;30.98;5.45;;;;;;;11.72;68.96;97287.81;5112441;27;20402;-78
2020/12/14 06:59:28;;;;;;;35.08;4.88;;;;;;;12.13;67.58;97309.25;5124830;27;20159;-81
2020/12/14 07:02:00;;;;;;;23.20;4.20;;;;;;;12.00;68.11;97302.97;5126085;27;20164;-80
2020/12/14 07:04:28;;;;;;;26.25;3.50;;;;;;;11.54;69.12;97314.00;5113571;27;20038;-80
2020/12/14 07:07:14;;;;;;;17.85;3.42;;;;;;;12.05;67.56;97315.81;5126961;27;20042;-80
2020/12/14 07:09:40;;;;;;;24.75;3.70;;;;;;;12.07;68.30;97306.13;5114459;27;20039;-80
2020/12/14 07:12:09;;;;;;;27.67;3.65;;;;;;;12.23;67.53;97304.38;5112944;27;20068;-80
2020/12/14 07:14:49;;;;;;;26.75;4.20;;;;;;;11.76;69.58;97319.88;5110015;27;20080;-80
2020/12/14 07:17:18;;;;;;;29.13;4.63;;;;;;;12.10;68.99;97332.97;5130378;27;20039;-80
2020/12/14 07:19:49;;;;;;;33.03;4.25;;;;;;;11.92;68.34;97320.81;5131901;27;20061;-81
2020/12/14 07:22:32;;;;;;;35.45;4.78;;;;;;;11.34;70.55;97302.75;5119416;27;20143;-82
2020/12/14 07:24:58;;;;;;;28.25;3.20;;;;;;;11.56;69.98;97323.47;5129475;27;20079;-82
2020/12/14 07:27:25;;;;;;;19.50;3.65;;;;;;;11.63;69.06;97319.63;5133235;27;20031;-82
2020/12/14 07:29:51;;;;;;;28.55;4.18;;;;;;;12.01;68.38;97320.34;5114550;27;20110;-82
2020/12/14 07:32:18;;;;;;;23.35;3.83;;;;;;;11.72;68.17;97331.41;5129968;27;20081;-81
2020/12/14 07:34:53;;;;;;;22.92;3.65;;;;;;;11.63;68.29;97329.25;5112217;27;20069;-80
2020/12/14 07:37:22;;;;;;;22.83;3.97;;;;;;;11.68;67.91;97348.16;5132543;27;20059;-80
2020/12/14 07:39:49;;;;;;;26.42;3.58;;;;;;;11.45;68.48;97331.00;5106646;27;20072;-81
2020/12/14 07:42:29;;;;;;;24.30;3.45;;;;;;;11.15;68.49;97329.84;5130908;27;20529;-80
2020/12/14 07:45:15;;;;;;;38.78;11.70;;;;;;;11.51;67.79;97328.06;5123607;27;20050;-82
2020/12/14 07:47:42;;;;;;;27.15;4.47;;;;;;;11.33;68.25;97342.88;5144196;27;20035;-80
2020/12/14 07:50:18;;;;;;;25.52;3.88;;;;;;;11.43;68.18;97339.81;5105386;27;20034;-81
2020/12/14 07:52:49;;;;;;;25.25;5.15;;;;;;;11.06;68.60;97335.50;5111372;28;20043;-79
2020/12/14 07:55:16;;;;;;;25.85;3.85;;;;;;;11.34;68.35;97341.97;5126181;27;20038;-81
2020/12/14 07:57:44;;;;;;;21.60;4.30;;;;;;;11.39;67.94;97346.97;5112683;27;20034;-80
2020/12/14 08:00:12;;;;;;;23.23;3.42;;;;;;;11.18;69.00;97350.59;5126954;27;20050;-81
2020/12/14 08:02:43;;;;;;;28.17;4.82;;;;;;;11.40;68.25;97355.66;5107410;27;20043;-81
2020/12/14 08:05:14;;;;;;;25.13;4.85;;;;;;;11.33;68.74;97355.09;5108943;28;20377;-81
2020/12/14 08:07:48;;;;;;;23.30;4.03;;;;;;;11.48;68.15;97361.38;5119495;27;20039;-81
2020/12/14 08:10:15;;;;;;;28.67;4.05;;;;;;;11.85;66.69;97368.28;5108949;28;20031;-81
2020/12/14 08:12:42;;;;;;;22.60;4.32;;;;;;;11.46;68.00;97373.69;5127193;27;20030;-80
2020/12/14 08:15:19;;;;;;;31.25;4.70;;;;;;;11.55;67.83;97366.25;5111603;27;20019;-81
2020/12/14 08:17:46;;;;;;;25.80;4.10;;;;;;;11.34;67.89;97375.94;5128690;27;20104;-81
2020/12/14 08:20:28;;;;;;;25.10;4.03;;;;;;;11.49;68.42;97370.91;5131108;27;20100;-80
2020/12/14 08:22:59;;;;;;;23.27;4.45;;;;;;;11.53;69.09;97369.84;5124840;27;20108;-83
2020/12/14 08:25:32;;;;;;;27.50;4.10;;;;;;;12.08;67.45;97376.72;5112437;27;23178;-83
2020/12/14 08:28:00;;;;;;;33.22;4.30;;;;;;;11.58;68.72;97373.94;5131271;27;20058;-81
2020/12/14 08:30:27;;;;;;;26.45;4.47;;;;;;;11.75;68.30;97371.34;5112546;27;20039;-81
2020/12/14 08:33:09;;;;;;;25.58;3.97;;;;;;;11.32;69.71;97369.09;5106876;27;20038;-81
2020/12/14 08:35:36;;;;;;;34.47;5.50;;;;;;;11.62;68.80;97379.84;5127802;27;20035;-77
2020/12/14 08:38:11;;;;;;;26.90;5.10;;;;;;;11.74;67.68;97387.16;5107922;27;20063;-77
2020/12/14 08:40:40;;;;;;;32.53;4.25;;;;;;;11.69;67.95;97381.25;5121774;27;20115;-79
2020/12/14 08:43:14;;;;;;;29.65;4.20;;;;;;;11.19;68.41;97394.97;5106893;28;20208;-76
2020/12/14 08:45:58;;;;;;;28.88;4.68;;;;;;;11.46;68.23;97389.38;5099103;28;20127;-80
2020/12/14 08:48:25;;;;;;;29.13;4.70;;;;;;;11.29;68.51;97400.59;5085683;27;20035;-78
2020/12/14 08:51:02;;;;;;;28.85;4.22;;;;;;;11.33;67.80;97399.53;5094008;28;20035;-78
2020/12/14 08:53:28;;;;;;;16.40;3.13;;;;;;;11.59;66.71;97409.63;5124092;27;20051;-78
2020/12/14 08:56:01;;;;;;;21.40;2.80;;;;;;;11.70;66.33;97407.31;5126121;27;20043;-81
2020/12/14 08:58:27;;;;;;;23.20;3.42;;;;;;;11.76;65.84;97406.22;5106348;27;20040;-78
2020/12/14 09:00:53;;;;;;;19.00;2.90;;;;;;;10.87;68.57;97406.03;5093070;28;20055;-78
2020/12/14 09:03:18;;;;;;;13.93;2.70;;;;;;;11.65;66.29;97411.94;5125366;27;20098;-78
2020/12/14 09:05:44;;;;;;;18.58;3.05;;;;;;;11.86;66.21;97419.69;5095547;28;20161;-78
2020/12/14 09:08:12;;;;;;;21.15;3.50;;;;;;;11.64;66.72;97414.63;5126947;27;20031;-77
2020/12/14 09:10:38;;;;;;;16.48;2.88;;;;;;;12.20;63.89;97431.03;5113793;27;20047;-77
2020/12/14 09:13:05;;;;;;;19.40;3.33;;;;;;;12.66;62.91;97428.72;5110337;27;20039;-78
2020/12/14 09:15:33;;;;;;;22.52;3.90;;;;;;;12.92;62.67;97438.66;5124219;27;20032;-78
2020/12/14 09:18:07;;;;;;;15.98;3.65;;;;;;;13.10;61.08;97448.19;5126112;27;20085;-76
2020/12/14 09:20:34;;;;;;;22.25;4.07;;;;;;;14.21;58.65;97446.41;5105777;27;20047;-75
2020/12/14 09:23:00;;;;;;;16.52;3.05;;;;;;;14.14;58.33;97456.44;5105894;27;20041;-78
2020/12/14 09:25:27;;;;;;;23.40;3.75;;;;;;;13.83;59.57;97466.97;5106955;27;20042;-76
2020/12/14 09:27:53;;;;;;;17.95;3.10;;;;;;;13.98;58.37;97460.84;5104135;28;20095;-77
2020/12/14 09:30:19;;;;;;;19.65;3.60;;;;;;;14.30;57.27;97457.22;5104119;28;20126;-77
2020/12/14 09:32:44;;;;;;;22.88;4.13;;;;;;;14.60;57.13;97474.78;5102447;28;20028;-77
2020/12/14 09:35:10;;;;;;;23.08;3.42;;;;;;;15.27;54.97;97461.06;5087059;28;20052;-75
2020/12/14 09:37:36;;;;;;;19.08;4.63;;;;;;;15.54;54.17;97475.16;5099050;28;20809;-77
2020/12/14 09:40:03;;;;;;;13.25;3.00;;;;;;;15.87;52.84;97479.25;5088880;28;20031;-78
2020/12/14 09:42:29;;;;;;;21.02;3.47;;;;;;;15.33;53.43;97494.03;5095390;28;20138;-78
2020/12/14 09:44:56;;;;;;;26.95;3.58;;;;;;;13.76;58.29;97486.63;5085907;28;20222;-79
2020/12/14 09:47:22;;;;;;;23.85;4.28;;;;;;;13.59;58.60;97497.16;5109848;28;20027;-79
2020/12/14 09:49:48;;;;;;;30.45;3.75;;;;;;;14.71;57.17;97496.03;5087197;28;20355;-76
2020/12/14 09:52:13;;;;;;;25.02;3.38;;;;;;;14.91;56.03;97498.34;5107191;27;20020;-78
2020/12/14 09:54:39;;;;;;;14.50;3.03;;;;;;;15.45;53.49;97495.91;5110978;27;20048;-76
2020/12/14 09:57:04;;;;;;;18.20;3.67;;;;;;;17.23;49.20;97498.25;5121047;27;20038;-76
2020/12/14 09:59:31;;;;;;;12.25;2.80;;;;;;;17.19;48.81;97492.34;5124734;27;20474;-76
2020/12/14 10:01:57;;;;;;;21.60;4.18;;;;;;;17.55;47.48;97498.66;5121815;27;20190;-76
2020/12/14 10:04:23;;;;;;;17.15;3.63;;;;;;;16.31;50.78;97495.63;5125770;27;20030;-75
2020/12/14 10:06:49;;;;;;;25.67;5.70;;;;;;;16.52;50.20;97496.03;5125719;27;20027;-76
2020/12/14 10:09:16;;;;;;;32.05;6.07;;;;;;;16.68;48.74;97478.28;5125095;27;20084;-77
2020/12/14 10:11:41;;;;;;;14.27;3.50;;;;;;;16.47;49.69;97498.97;5125429;27;20035;-77
2020/12/14 10:14:07;;;;;;;19.05;3.80;;;;;;;17.06;48.80;97493.31;5120576;27;20063;-77
2020/12/14 10:16:34;;;;;;;16.15;3.60;;;;;;;16.88;49.74;97495.41;5124559;27;20039;-76
2020/12/14 10:19:00;;;;;;;16.13;3.42;;;;;;;16.97;48.84;97503.53;5103642;27;20031;-75
2020/12/14 10:21:26;;;;;;;14.63;3.55;;;;;;;15.44;52.16;97497.72;5108757;27;20062;-76
2020/12/14 10:23:52;;;;;;;19.00;3.78;;;;;;;14.49;54.85;97511.34;5111434;27;20150;-75
2020/12/14 10:26:20;;;;;;;22.33;4.53;;;;;;;14.10;56.45;97509.22;5123826;27;20019;-77
2020/12/14 10:28:46;;;;;;;30.15;4.55;;;;;;;14.46;55.00;97509.75;5127080;27;20035;-74
2020/12/14 10:31:12;;;;;;;19.15;3.92;;;;;;;14.97;55.40;97518.13;5106379;27;20040;-76
2020/12/14 10:33:38;;;;;;;15.68;3.25;;;;;;;14.55;55.54;97517.09;5125511;27;20042;-76
2020/12/14 10:36:06;;;;;;;16.35;3.00;;;;;;;14.06;57.28;97510.28;5126973;27;20023;-76
2020/12/14 10:38:33;;;;;;;22.00;3.47;;;;;;;14.01;57.57;97507.91;5115059;27;20039;-78
2020/12/14 10:40:59;;;;;;;20.50;3.22;;;;;;;13.63;58.46;97520.53;5130448;27;20079;-75
2020/12/14 10:43:25;;;;;;;17.10;2.63;;;;;;;13.74;57.76;97528.69;5103426;27;20035;-76
2020/12/14 10:45:51;;;;;;;14.07;2.72;;;;;;;15.40;54.52;97525.13;5110785;27;20186;-75
2020/12/14 10:48:16;;;;;;;17.92;3.80;;;;;;;16.57;50.70;97510.59;5100403;27;20047;-75
2020/12/14 10:50:42;;;;;;;14.48;2.60;;;;;;;17.30;47.29;97518.84;5123402;27;20040;-76
2020/12/14 10:53:08;;;;;;;19.95;3.45;;;;;;;17.02;49.33;97521.69;5104826;27;20043;-75
2020/12/14 10:55:34;;;;;;;13.90;3.65;;;;;;;17.91;46.17;97522.50;5123714;27;20054;-75
2020/12/14 10:58:00;;;;;;;20.70;4.47;;;;;;;17.40;46.73;97516.41;5124621;27;20031;-74
2020/12/14 11:00:26;;;;;;;20.20;3.55;;;;;;;18.18;45.26;97504.63;5107384;27;20038;-77
2020/12/14 11:02:52;;;;;;;23.90;3.75;;;;;;;18.45;45.25;97515.00;5107171;27;20084;-77
2020/12/14 11:05:17;;;;;;;17.00;4.15;;;;;;;18.60;44.28;97527.13;5104380;27;20113;-77
2020/12/14 11:07:44;;;;;;;18.02;3.05;;;;;;;18.47;45.01;97520.16;5113964;27;20036;-78
2020/12/14 11:10:10;;;;;;;15.88;3.20;;;;;;;18.95;42.43;97510.38;5122541;27;20053;-76
2020/12/14 11:12:36;;;;;;;17.67;3.10;;;;;;;18.36;43.73;97517.47;5127217;27;20142;-76
2020/12/14 11:15:07;;;;;;;15.75;3.63;;;;;;;17.42;46.95;97517.13;5116017;27;20519;-75
2020/12/14 11:17:35;;;;;;;20.20;3.08;;;;;;;17.37;45.21;97506.91;5106841;27;20512;-76
2020/12/14 11:20:02;;;;;;;18.65;3.60;;;;;;;16.52;47.83;97514.47;5122174;27;20051;-78
2020/12/14 11:22:29;;;;;;;13.82;3.00;;;;;;;17.66;45.32;97514.59;5117880;27;20054;-77
2020/12/14 11:24:54;;;;;;;13.23;3.40;;;;;;;17.21;46.24;97514.22;5121188;27;20334;-75
2020/12/14 11:27:20;;;;;;;17.02;3.83;;;;;;;17.60;45.29;97523.81;5102802;27;20461;-75
2020/12/14 11:29:53;;;;;;;18.55;3.70;;;;;;;16.93;47.14;97506.47;5127039;27;20053;-76